Time;durP1;ratioP1;P1;durP2;ratioP2;P2;SDS_P1;SDS_P2;PMS_P1;PMS_P2;Temp;Humidity;BMP_temperature;BMP_pressure;BME280_temperature;BME280_humidity;BME280_pressure;Samples;Min_cycle;Max_cycle;Signal;HPM_P1;HPM_P2
2022/09/04 00:01:26;;;;;;;58.70;3.10;;;;;;;;;;5074129;28;20517;-64
2022/09/04 00:03:57;;;;;;;58.90;3.07;;;;;;;;;;5074144;28;20850;-64
2022/09/04 00:06:26;;;;;;;58.97;3.30;;;;;;;;;;5074108;28;20505;-64
2022/09/04 00:09:00;;;;;;;59.37;3.40;;;;;;;;;;5073651;28;20458;-64
2022/09/04 00:11:34;;;;;;;61.20;3.57;;;;;;;;;;5074006;28;20508;-64
2022/09/04 00:14:03;;;;;;;58.60;3.20;;;;;;;;;;5074153;28;20474;-64
2022/09/04 00:16:35;;;;;;;59.07;3.43;;;;;;;;;;5073953;28;20443;-64
2022/09/04 00:19:03;;;;;;;59.10;3.57;;;;;;;;;;5073489;28;20449;-64
2022/09/04 00:21:35;;;;;;;59.77;4.27;;;;;;;;;;5073579;28;20446;-64
2022/09/04 00:24:04;;;;;;;59.03;3.50;;;;;;;;;;5073899;28;20467;-64
2022/09/04 00:26:39;;;;;;;59.20;3.50;;;;;;;;;;5073517;28;20565;-64
2022/09/04 00:29:10;;;;;;;60.20;3.60;;;;;;;;;;5073000;28;20522;-64
2022/09/04 00:31:42;;;;;;;60.87;3.30;;;;;;;;;;5072849;28;20450;-64
2022/09/04 00:34:14;;;;;;;58.77;3.10;;;;;;;;;;5073721;28;20475;-64
2022/09/04 00:36:43;;;;;;;59.03;3.10;;;;;;;;;;5073674;28;20466;-64
2022/09/04 00:39:12;;;;;;;59.70;3.70;;;;;;;;;;5073666;28;20826;-64
2022/09/04 00:41:44;;;;;;;59.10;3.70;;;;;;;;;;5073592;28;20947;-64
2022/09/04 00:44:21;;;;;;;59.00;3.30;;;;;;;;;;5073739;28;20485;-64
2022/09/04 00:47:03;;;;;;;59.07;3.40;;;;;;;;;;5073718;28;20851;-64
2022/09/04 00:49:45;;;;;;;61.27;3.87;;;;;;;;;;5072760;28;20456;-64
2022/09/04 00:52:17;;;;;;;58.80;3.40;;;;;;;;;;5073493;28;20454;-64
2022/09/04 00:54:52;;;;;;;59.20;3.53;;;;;;;;;;5073488;28;20454;-64
2022/09/04 00:57:37;;;;;;;60.33;3.73;;;;;;;;;;5073602;28;20441;-64
2022/09/04 01:00:07;;;;;;;59.30;3.47;;;;;;;;;;5062793;28;20457;-64
2022/09/04 01:02:43;;;;;;;59.37;3.67;;;;;;;;;;5073066;28;21013;-64
2022/09/04 01:05:16;;;;;;;59.60;3.57;;;;;;;;;;5073105;28;20874;-64
2022/09/04 01:07:48;;;;;;;59.87;3.90;;;;;;;;;;5073259;28;20491;-64
2022/09/04 01:10:24;;;;;;;59.63;3.40;;;;;;;;;;5072943;28;20477;-64
2022/09/04 01:12:57;;;;;;;58.83;3.43;;;;;;;;;;5073022;28;20470;-64
2022/09/04 01:15:28;;;;;;;58.57;2.93;;;;;;;;;;5073028;28;20820;-64
2022/09/04 01:18:01;;;;;;;61.20;3.67;;;;;;;;;;5072789;28;20461;-64
2022/09/04 01:20:33;;;;;;;58.93;3.40;;;;;;;;;;5072749;28;20456;-64
2022/09/04 01:23:22;;;;;;;59.57;3.87;;;;;;;;;;5073169;28;20470;-64
2022/09/04 01:25:59;;;;;;;59.63;3.10;;;;;;;;;;5072686;28;20458;-64
2022/09/04 01:28:29;;;;;;;60.40;3.23;;;;;;;;;;5073162;28;20464;-64
2022/09/04 01:31:01;;;;;;;61.47;3.93;;;;;;;;;;5072683;28;20534;-64
2022/09/04 01:33:34;;;;;;;60.17;3.70;;;;;;;;;;5072662;28;20479;-64
2022/09/04 01:36:04;;;;;;;59.37;3.70;;;;;;;;;;5072550;28;20458;-64
2022/09/04 01:38:34;;;;;;;59.70;4.27;;;;;;;;;;5072251;28;20449;-64
2022/09/04 01:41:06;;;;;;;60.30;4.53;;;;;;;;;;5072868;28;20458;-64
2022/09/04 01:43:33;;;;;;;59.50;3.50;;;;;;;;;;5070523;28;20564;-64
2022/09/04 01:46:15;;;;;;;59.17;3.70;;;;;;;;;;5072291;28;20488;-64
2022/09/04 01:48:46;;;;;;;58.90;3.53;;;;;;;;;;5072017;28;20441;-64
2022/09/04 01:51:18;;;;;;;59.80;3.77;;;;;;;;;;5072434;28;20439;-64
2022/09/04 01:53:51;;;;;;;60.10;3.73;;;;;;;;;;5072256;28;20484;-64
2022/09/04 01:56:22;;;;;;;61.10;4.33;;;;;;;;;;5072250;28;20442;-64
2022/09/04 01:58:54;;;;;;;59.17;3.60;;;;;;;;;;5071678;28;20441;-64
2022/09/04 02:01:25;;;;;;;59.37;3.83;;;;;;;;;;5071861;28;20827;-64
2022/09/04 02:03:58;;;;;;;59.20;3.87;;;;;;;;;;5072177;28;20466;-64
2022/09/04 02:06:30;;;;;;;60.70;4.17;;;;;;;;;;5072526;28;20859;-64
2022/09/04 02:09:04;;;;;;;59.30;3.60;;;;;;;;;;5071705;28;20946;-64
2022/09/04 02:11:33;;;;;;;59.80;3.80;;;;;;;;;;5072123;28;20545;-64
2022/09/04 02:14:09;;;;;;;59.93;4.13;;;;;;;;;;5072060;28;20615;-64
2022/09/04 02:16:42;;;;;;;59.37;3.27;;;;;;;;;;5072097;28;20449;-64
2022/09/04 02:19:14;;;;;;;59.90;3.43;;;;;;;;;;5071593;28;20457;-64
2022/09/04 02:21:45;;;;;;;59.57;3.70;;;;;;;;;;5071818;28;20467;-64
2022/09/04 02:24:17;;;;;;;59.17;3.47;;;;;;;;;;5072031;28;20473;-64
2022/09/04 02:26:47;;;;;;;59.30;3.83;;;;;;;;;;5071927;28;20491;-64
2022/09/04 02:29:20;;;;;;;59.60;3.70;;;;;;;;;;5071536;28;20453;-64
2022/09/04 02:31:50;;;;;;;59.67;3.80;;;;;;;;;;5071867;28;20448;-64
2022/09/04 02:34:20;;;;;;;60.17;4.00;;;;;;;;;;5071560;28;20473;-64
2022/09/04 02:36:50;;;;;;;59.67;3.83;;;;;;;;;;5071653;28;20458;-64
2022/09/04 02:39:26;;;;;;;59.83;3.50;;;;;;;;;;5071445;28;20461;-64
2022/09/04 02:42:02;;;;;;;59.20;3.60;;;;;;;;;;5071767;28;20811;-64
2022/09/04 02:44:35;;;;;;;60.17;3.30;;;;;;;;;;5071598;28;20460;-64
2022/09/04 02:47:11;;;;;;;61.70;4.93;;;;;;;;;;5071871;28;20490;-64
2022/09/04 02:49:40;;;;;;;59.33;3.33;;;;;;;;;;5071266;28;20550;-64
2022/09/04 02:52:14;;;;;;;61.50;4.10;;;;;;;;;;5071470;28;20942;-64
2022/09/04 02:54:48;;;;;;;60.80;3.50;;;;;;;;;;5071654;28;20813;-64
2022/09/04 02:57:26;;;;;;;59.47;3.50;;;;;;;;;;5071460;28;20453;-64
2022/09/04 02:59:58;;;;;;;59.30;3.30;;;;;;;;;;5071421;28;20454;-64
2022/09/04 03:02:30;;;;;;;60.00;3.53;;;;;;;;;;5071450;28;20974;-64
2022/09/04 03:05:00;;;;;;;59.17;3.80;;;;;;;;;;5071526;28;20939;-64
2022/09/04 03:07:30;;;;;;;59.70;3.50;;;;;;;;;;5071359;28;20476;-64
2022/09/04 03:10:00;;;;;;;59.30;3.83;;;;;;;;;;5071443;28;20453;-64
2022/09/04 03:12:32;;;;;;;59.77;4.20;;;;;;;;;;5071264;28;21016;-64
2022/09/04 03:15:03;;;;;;;63.57;3.50;;;;;;;;;;5074935;28;20455;-64
2022/09/04 03:17:35;;;;;;;59.10;3.60;;;;;;;;;;5075221;28;20446;-64
2022/09/04 03:20:05;;;;;;;58.90;3.17;;;;;;;;;;5074695;28;20445;-64
2022/09/04 03:22:34;;;;;;;59.63;3.73;;;;;;;;;;5075218;28;20663;-64
2022/09/04 03:25:11;;;;;;;60.10;3.50;;;;;;;;;;5075208;28;20455;-64
2022/09/04 03:27:39;;;;;;;59.57;3.60;;;;;;;;;;5075058;28;20484;-64
2022/09/04 03:30:09;;;;;;;59.17;3.60;;;;;;;;;;5074615;28;20450;-64
2022/09/04 03:32:40;;;;;;;59.00;3.20;;;;;;;;;;5074713;28;20468;-64
2022/09/04 03:35:10;;;;;;;60.30;4.00;;;;;;;;;;5075022;28;20447;-64
2022/09/04 03:37:50;;;;;;;59.20;3.30;;;;;;;;;;5074999;28;20446;-64
2022/09/04 03:40:22;;;;;;;62.67;3.73;;;;;;;;;;5074910;28;20450;-64
2022/09/04 03:42:57;;;;;;;58.80;3.40;;;;;;;;;;5074548;28;20484;-64
2022/09/04 03:45:29;;;;;;;59.47;3.57;;;;;;;;;;5074927;28;20448;-64
2022/09/04 03:48:11;;;;;;;59.20;3.50;;;;;;;;;;5074713;28;20490;-64
2022/09/04 03:50:44;;;;;;;58.80;3.13;;;;;;;;;;5074416;28;20819;-64
2022/09/04 03:53:17;;;;;;;64.50;3.57;;;;;;;;;;5074451;28;20471;-64
2022/09/04 03:55:58;;;;;;;58.90;3.30;;;;;;;;;;5074731;28;20449;-64
2022/09/04 03:58:29;;;;;;;59.57;4.10;;;;;;;;;;5074346;28;20534;-64
2022/09/04 04:01:04;;;;;;;58.63;3.20;;;;;;;;;;5074272;28;20934;-64
2022/09/04 04:03:37;;;;;;;60.03;3.93;;;;;;;;;;5074301;28;20479;-64
2022/09/04 04:06:15;;;;;;;58.60;2.87;;;;;;;;;;5074316;28;20452;-64
2022/09/04 04:08:57;;;;;;;58.90;3.30;;;;;;;;;;5074052;28;20480;-64
2022/09/04 04:11:41;;;;;;;59.60;3.40;;;;;;;;;;5074265;28;20454;-64
2022/09/04 04:14:24;;;;;;;59.40;3.50;;;;;;;;;;5074492;28;20472;-64
2022/09/04 04:16:56;;;;;;;60.07;4.23;;;;;;;;;;5074021;28;20936;-64
2022/09/04 04:19:32;;;;;;;58.90;3.23;;;;;;;;;;5073923;28;20478;-64
2022/09/04 04:22:16;;;;;;;59.73;3.63;;;;;;;;;;5074153;28;20877;-64
2022/09/04 04:24:53;;;;;;;59.63;3.43;;;;;;;;;;5073747;28;20457;-64
2022/09/04 04:27:34;;;;;;;59.30;3.10;;;;;;;;;;5073800;28;20486;-64
2022/09/04 04:30:11;;;;;;;59.77;3.47;;;;;;;;;;5073657;28;20454;-64
2022/09/04 04:32:49;;;;;;;59.10;3.67;;;;;;;;;;5074008;28;20875;-64
2022/09/04 04:35:19;;;;;;;61.63;4.17;;;;;;;;;;5073911;28;20446;-64
2022/09/04 04:37:53;;;;;;;59.77;3.70;;;;;;;;;;5073872;28;20445;-64
2022/09/04 04:40:25;;;;;;;58.77;3.27;;;;;;;;;;5073521;28;20508;-64
2022/09/04 04:42:55;;;;;;;59.27;3.60;;;;;;;;;;5073939;28;20991;-64
2022/09/04 04:48:36;;;;;;;59.03;3.47;;;;;;;;;;5073631;28;20500;-64
2022/09/04 04:51:07;;;;;;;59.20;3.80;;;;;;;;;;5073536;28;20455;-64
2022/09/04 04:53:37;;;;;;;60.37;4.20;;;;;;;;;;5073357;28;20469;-64
2022/09/04 04:56:13;;;;;;;60.17;3.77;;;;;;;;;;5073601;28;20815;-64
2022/09/04 04:58:44;;;;;;;60.13;3.97;;;;;;;;;;5073321;28;20447;-64
2022/09/04 05:01:17;;;;;;;60.07;4.10;;;;;;;;;;5073193;28;20971;-64
2022/09/04 05:03:52;;;;;;;59.90;3.60;;;;;;;;;;5073213;28;20546;-64
2022/09/04 05:06:21;;;;;;;59.30;3.80;;;;;;;;;;5073107;28;20511;-64
2022/09/04 05:08:53;;;;;;;59.03;3.50;;;;;;;;;;5072982;28;20486;-64
2022/09/04 05:11:24;;;;;;;59.00;3.30;;;;;;;;;;5073007;28;20449;-64
2022/09/04 05:13:59;;;;;;;59.77;3.60;;;;;;;;;;5073036;28;20555;-64
2022/09/04 05:16:33;;;;;;;61.83;3.93;;;;;;;;;;5073153;28;20456;-64
2022/09/04 05:19:02;;;;;;;59.50;3.93;;;;;;;;;;5072550;28;20960;-64
2022/09/04 05:21:33;;;;;;;59.30;3.63;;;;;;;;;;5072986;28;20454;-64
2022/09/04 05:24:03;;;;;;;59.97;4.10;;;;;;;;;;5072784;28;20467;-64
2022/09/04 05:26:37;;;;;;;59.87;3.70;;;;;;;;;;5072833;28;20963;-64
2022/09/04 05:29:11;;;;;;;59.27;3.10;;;;;;;;;;5072791;28;20482;-64
2022/09/04 05:31:44;;;;;;;59.77;3.60;;;;;;;;;;5072965;28;20459;-64
2022/09/04 05:34:16;;;;;;;62.20;5.20;;;;;;;;;;5072668;28;20471;-64
2022/09/04 05:36:47;;;;;;;59.10;3.50;;;;;;;;;;5072208;28;20460;-64
2022/09/04 05:39:22;;;;;;;59.37;3.60;;;;;;;;;;5072379;28;20875;-64
2022/09/04 05:42:01;;;;;;;59.13;3.50;;;;;;;;;;5072429;28;20932;-64
2022/09/04 05:44:40;;;;;;;59.27;3.47;;;;;;;;;;5072363;28;20455;-64
2022/09/04 05:47:15;;;;;;;59.40;3.60;;;;;;;;;;5072501;28;20445;-64
2022/09/04 05:49:48;;;;;;;59.00;3.73;;;;;;;;;;5072024;28;20822;-64
2022/09/04 05:52:25;;;;;;;61.03;4.20;;;;;;;;;;5071938;28;20815;-64
2022/09/04 05:54:58;;;;;;;60.27;4.20;;;;;;;;;;5072302;28;20488;-64
2022/09/04 05:57:30;;;;;;;60.77;4.30;;;;;;;;;;5072192;28;20455;-64
2022/09/04 06:00:12;;;;;;;59.90;3.93;;;;;;;;;;5071872;28;20465;-64
2022/09/04 06:02:58;;;;;;;60.77;4.70;;;;;;;;;;5071969;28;20557;-64
2022/09/04 06:05:30;;;;;;;59.27;3.90;;;;;;;;;;5072452;28;20445;-64
2022/09/04 06:08:01;;;;;;;58.67;3.13;;;;;;;;;;5071913;28;21031;-64
2022/09/04 06:10:36;;;;;;;59.30;4.10;;;;;;;;;;5071781;28;20453;-64
2022/09/04 06:13:24;;;;;;;59.87;3.93;;;;;;;;;;5071897;28;20468;-64
2022/09/04 06:15:58;;;;;;;59.60;3.90;;;;;;;;;;5046503;28;20483;-64
2022/09/04 06:18:43;;;;;;;59.50;3.70;;;;;;;;;;5071841;28;20446;-64
2022/09/04 06:21:27;;;;;;;60.33;3.90;;;;;;;;;;5071896;28;20458;-64
2022/09/04 06:24:02;;;;;;;61.57;4.43;;;;;;;;;;5071779;28;20473;-64
2022/09/04 06:26:36;;;;;;;63.07;4.40;;;;;;;;;;5071968;28;20450;-64
2022/09/04 06:29:24;;;;;;;58.97;3.57;;;;;;;;;;5071757;28;20987;-64
2022/09/04 06:32:03;;;;;;;59.23;3.87;;;;;;;;;;5066933;28;20473;-64
2022/09/04 06:34:36;;;;;;;59.20;3.60;;;;;;;;;;5072055;28;20440;-64
2022/09/04 06:37:13;;;;;;;59.70;3.40;;;;;;;;;;5071744;28;20465;-64
2022/09/04 06:39:56;;;;;;;59.67;4.20;;;;;;;;;;5071637;28;20832;-64
2022/09/04 06:42:29;;;;;;;59.30;3.67;;;;;;;;;;5071891;28;20823;-64
2022/09/04 06:45:08;;;;;;;61.87;3.83;;;;;;;;;;5071982;28;20456;-64
2022/09/04 06:47:42;;;;;;;59.43;3.97;;;;;;;;;;5071699;28;20487;-64
2022/09/04 06:50:18;;;;;;;60.90;4.17;;;;;;;;;;5075239;28;20465;-64
2022/09/04 06:52:52;;;;;;;59.77;3.93;;;;;;;;;;5075866;28;20886;-64
2022/09/04 06:55:24;;;;;;;60.27;4.87;;;;;;;;;;5075891;28;20448;-64
2022/09/04 06:57:59;;;;;;;59.30;4.37;;;;;;;;;;5075763;28;20445;-64
2022/09/04 07:00:29;;;;;;;59.40;3.90;;;;;;;;;;5075360;28;20444;-64
2022/09/04 07:03:17;;;;;;;59.10;3.23;;;;;;;;;;5075375;28;20469;-64
2022/09/04 07:05:50;;;;;;;59.57;3.70;;;;;;;;;;5070677;28;20541;-64
2022/09/04 07:08:23;;;;;;;60.80;4.40;;;;;;;;;;5075504;28;20482;-64
2022/09/04 07:10:58;;;;;;;59.90;4.10;;;;;;;;;;5075177;28;20806;-64
2022/09/04 07:13:53;;;;;;;60.97;3.57;;;;;;;;;;5075178;28;20474;-64
2022/09/04 07:16:38;;;;;;;58.70;3.30;;;;;;;;;;5039719;28;20939;-64
2022/09/04 07:19:17;;;;;;;58.90;3.47;;;;;;;;;;5075099;28;20461;-64
2022/09/04 07:21:50;;;;;;;65.87;4.47;;;;;;;;;;5075081;28;20443;-64
2022/09/04 07:24:37;;;;;;;59.00;3.90;;;;;;;;;;5075000;28;20471;-64
2022/09/04 07:27:08;;;;;;;58.97;3.40;;;;;;;;;;5075341;28;20481;-64
2022/09/04 07:29:38;;;;;;;59.57;4.37;;;;;;;;;;5072334;28;20483;-65
2022/09/04 07:32:09;;;;;;;58.97;3.80;;;;;;;;;;5055639;28;20456;-64
2022/09/04 07:34:41;;;;;;;59.07;3.57;;;;;;;;;;5055217;28;20451;-66
2022/09/04 07:37:11;;;;;;;59.00;3.63;;;;;;;;;;5054670;28;20460;-65
2022/09/04 07:39:44;;;;;;;59.27;3.87;;;;;;;;;;5054357;28;20454;-65
2022/09/04 07:42:14;;;;;;;58.80;3.50;;;;;;;;;;5055242;28;20829;-65
2022/09/04 07:44:45;;;;;;;59.13;3.03;;;;;;;;;;5055818;28;20456;-65
2022/09/04 07:47:15;;;;;;;59.23;3.83;;;;;;;;;;5060298;28;20535;-64
2022/09/04 07:49:48;;;;;;;60.60;4.50;;;;;;;;;;5062763;28;20483;-64
2022/09/04 07:52:21;;;;;;;60.27;4.97;;;;;;;;;;5078321;28;20455;-65
2022/09/04 07:54:57;;;;;;;59.27;3.97;;;;;;;;;;5074115;28;20534;-65
2022/09/04 07:57:32;;;;;;;59.40;3.90;;;;;;;;;;5072132;28;20462;-65
2022/09/04 08:00:06;;;;;;;60.37;4.20;;;;;;;;;;5073529;28;20458;-64
2022/09/04 08:02:38;;;;;;;58.90;3.40;;;;;;;;;;5074494;28;20524;-64
2022/09/04 08:05:24;;;;;;;58.87;3.50;;;;;;;;;;5075046;28;20455;-65
2022/09/04 08:08:02;;;;;;;59.10;4.20;;;;;;;;;;5073663;28;20997;-67
2022/09/04 08:10:32;;;;;;;59.00;3.70;;;;;;;;;;5072342;28;20528;-65
2022/09/04 08:13:17;;;;;;;58.97;3.87;;;;;;;;;;5074382;28;20881;-65
2022/09/04 08:15:48;;;;;;;59.70;4.20;;;;;;;;;;5074190;28;20452;-66
2022/09/04 08:18:22;;;;;;;60.27;3.37;;;;;;;;;;5071550;28;20815;-65
2022/09/04 08:20:53;;;;;;;63.97;4.20;;;;;;;;;;5073656;28;20451;-65
2022/09/04 08:23:44;;;;;;;59.30;3.80;;;;;;;;;;5074064;28;20599;-65
2022/09/04 08:26:16;;;;;;;63.30;3.90;;;;;;;;;;5017042;28;20450;-65
2022/09/04 08:28:56;;;;;;;58.67;3.40;;;;;;;;;;5073617;28;20533;-66
2022/09/04 08:31:29;;;;;;;59.20;3.73;;;;;;;;;;5073870;28;20560;-67
2022/09/04 08:34:14;;;;;;;59.10;4.03;;;;;;;;;;5073820;28;20470;-66
2022/09/04 08:36:46;;;;;;;58.87;3.63;;;;;;;;;;5073629;28;20509;-66
2022/09/04 08:39:19;;;;;;;59.00;3.40;;;;;;;;;;5073637;28;20448;-67
2022/09/04 08:42:04;;;;;;;59.00;3.70;;;;;;;;;;5073925;28;20457;-66
2022/09/04 08:44:50;;;;;;;59.17;3.40;;;;;;;;;;5073692;28;20450;-66
2022/09/04 08:47:35;;;;;;;58.50;3.27;;;;;;;;;;5073388;28;20502;-67
2022/09/04 08:50:22;;;;;;;58.40;3.10;;;;;;;;;;5070240;28;20505;-66
2022/09/04 08:53:01;;;;;;;58.90;3.60;;;;;;;;;;5073634;28;20463;-66
2022/09/04 08:55:33;;;;;;;58.50;3.07;;;;;;;;;;5073333;28;20443;-66
2022/09/04 08:58:16;;;;;;;60.67;3.00;;;;;;;;;;5073194;28;20443;-66
2022/09/04 09:00:55;;;;;;;58.17;2.63;;;;;;;;;;5073152;28;20446;-66
2022/09/04 09:03:42;;;;;;;60.70;3.50;;;;;;;;;;5073071;28;21015;-66
2022/09/04 09:06:23;;;;;;;58.60;2.83;;;;;;;;;;5073336;28;20439;-66
2022/09/04 09:09:11;;;;;;;58.90;3.03;;;;;;;;;;5072925;28;20494;-65
2022/09/04 09:12:04;;;;;;;58.37;3.07;;;;;;;;;;5072020;28;20450;-65
2022/09/04 09:14:53;;;;;;;58.20;3.20;;;;;;;;;;5073191;28;20451;-66
2022/09/04 09:17:28;;;;;;;59.77;3.13;;;;;;;;;;5073080;28;20453;-65
2022/09/04 09:19:59;;;;;;;58.00;2.87;;;;;;;;;;5072514;28;20982;-66
2022/09/04 09:22:47;;;;;;;58.60;3.30;;;;;;;;;;5069943;28;20463;-66
2022/09/04 09:25:22;;;;;;;58.23;2.70;;;;;;;;;;5072898;28;20443;-65
2022/09/04 09:28:10;;;;;;;58.27;2.67;;;;;;;;;;5072952;28;20439;-66
2022/09/04 09:30:49;;;;;;;58.37;2.80;;;;;;;;;;5072556;28;20448;-66
2022/09/04 09:33:35;;;;;;;58.10;2.87;;;;;;;;;;5072728;28;20887;-66
2022/09/04 09:36:28;;;;;;;59.83;2.60;;;;;;;;;;5072757;28;20469;-66
2022/09/04 09:39:23;;;;;;;57.87;2.70;;;;;;;;;;5072539;28;20956;-66
2022/09/04 09:42:14;;;;;;;59.23;3.00;;;;;;;;;;5072711;28;20455;-66
2022/09/04 09:45:01;;;;;;;59.00;3.03;;;;;;;;;;5073204;28;20458;-66
2022/09/04 09:47:52;;;;;;;58.40;2.50;;;;;;;;;;5072620;28;20930;-66
2022/09/04 09:50:43;;;;;;;58.10;2.37;;;;;;;;;;5072110;28;20482;-66
2022/09/04 09:53:25;;;;;;;59.07;2.90;;;;;;;;;;5056221;28;20507;-66
2022/09/04 09:56:11;;;;;;;59.17;3.00;;;;;;;;;;5052013;28;20897;-66
2022/09/04 09:58:53;;;;;;;57.67;2.50;;;;;;;;;;5051625;28;20951;-66
2022/09/04 10:01:33;;;;;;;57.63;2.20;;;;;;;;;;5029551;28;20452;-66
2022/09/04 10:04:10;;;;;;;57.27;2.13;;;;;;;;;;5051661;28;20481;-67
2022/09/04 10:06:53;;;;;;;57.47;2.17;;;;;;;;;;5052324;28;20815;-67
2022/09/04 10:09:44;;;;;;;57.27;2.30;;;;;;;;;;5051671;28;20472;-67
2022/09/04 10:12:26;;;;;;;57.10;1.80;;;;;;;;;;5037158;28;21206;-67
2022/09/04 10:15:11;;;;;;;57.07;2.00;;;;;;;;;;5052238;28;20458;-67
2022/09/04 10:17:53;;;;;;;56.87;1.80;;;;;;;;;;5051766;28;20531;-67
2022/09/04 10:20:35;;;;;;;56.57;1.97;;;;;;;;;;5049538;28;20547;-67
2022/09/04 10:23:15;;;;;;;56.30;1.80;;;;;;;;;;5051449;28;20476;-68
2022/09/04 10:25:54;;;;;;;56.87;2.27;;;;;;;;;;5061161;28;20805;-65
2022/09/04 10:28:28;;;;;;;56.50;2.40;;;;;;;;;;5071469;28;21040;-65
2022/09/04 10:31:10;;;;;;;56.50;2.17;;;;;;;;;;5071536;28;20443;-66
2022/09/04 10:33:45;;;;;;;56.67;2.43;;;;;;;;;;5066105;28;20527;-65
2022/09/04 10:36:24;;;;;;;56.50;1.90;;;;;;;;;;5051587;28;20951;-65
2022/09/04 10:41:59;;;;;;;57.57;2.23;;;;;;;;;;5051705;28;20428;-65
2022/09/04 10:44:33;;;;;;;57.70;2.07;;;;;;;;;;5049789;28;20476;-67
2022/09/04 10:47:05;;;;;;;57.37;2.10;;;;;;;;;;5051529;28;20444;-67
2022/09/04 10:49:39;;;;;;;59.17;2.63;;;;;;;;;;5051143;28;20490;-66
2022/09/04 10:52:20;;;;;;;57.40;2.20;;;;;;;;;;5051032;28;20973;-67
2022/09/04 10:55:01;;;;;;;57.37;1.90;;;;;;;;;;5051601;28;20834;-67
2022/09/04 10:57:37;;;;;;;56.93;1.90;;;;;;;;;;5065672;28;20451;-67
2022/09/04 11:00:06;;;;;;;59.10;2.03;;;;;;;;;;5071046;28;20443;-67
2022/09/04 11:02:48;;;;;;;56.93;1.90;;;;;;;;;;5071173;28;20528;-67
2022/09/04 11:05:26;;;;;;;56.77;1.90;;;;;;;;;;5072057;28;20447;-67
2022/09/04 11:08:12;;;;;;;56.93;1.73;;;;;;;;;;5071682;28;20451;-67
2022/09/04 11:10:50;;;;;;;56.37;1.70;;;;;;;;;;5070772;28;21066;-67
2022/09/04 11:13:41;;;;;;;56.87;1.90;;;;;;;;;;5071310;28;20991;-67
2022/09/04 11:16:22;;;;;;;57.93;2.50;;;;;;;;;;5071517;28;20530;-67
2022/09/04 11:18:57;;;;;;;57.00;2.00;;;;;;;;;;5071277;28;20451;-67
2022/09/04 11:21:42;;;;;;;56.60;1.70;;;;;;;;;;5071305;28;20863;-67
2022/09/04 11:24:28;;;;;;;56.30;1.60;;;;;;;;;;5071781;28;20467;-65
2022/09/04 11:27:13;;;;;;;56.50;2.03;;;;;;;;;;5068589;28;20528;-65
2022/09/04 11:29:53;;;;;;;56.40;1.83;;;;;;;;;;5050725;28;20495;-66
2022/09/04 11:32:39;;;;;;;56.47;1.77;;;;;;;;;;5051306;28;20538;-65
2022/09/04 11:35:39;;;;;;;56.37;1.70;;;;;;;;;;5053370;28;20454;-65
2022/09/04 11:38:17;;;;;;;56.70;1.70;;;;;;;;;;5054621;28;20444;-65
2022/09/04 11:41:08;;;;;;;56.37;1.90;;;;;;;;;;5054525;28;20484;-65
2022/09/04 11:43:51;;;;;;;56.30;1.90;;;;;;;;;;5054718;28;20499;-65
2022/09/04 11:46:28;;;;;;;57.63;2.30;;;;;;;;;;5054727;28;20450;-65
2022/09/04 11:49:09;;;;;;;56.47;1.87;;;;;;;;;;5054577;28;20443;-65
2022/09/04 11:52:02;;;;;;;56.47;1.70;;;;;;;;;;5042375;28;20462;-65
2022/09/04 11:54:50;;;;;;;56.30;2.10;;;;;;;;;;5054485;28;20506;-65
2022/09/04 11:57:25;;;;;;;56.07;1.80;;;;;;;;;;5029072;28;20538;-65
2022/09/04 12:00:06;;;;;;;56.37;1.77;;;;;;;;;;5067563;28;20486;-65
2022/09/04 12:02:44;;;;;;;56.27;1.90;;;;;;;;;;5074199;28;20467;-65
2022/09/04 12:05:19;;;;;;;56.40;1.80;;;;;;;;;;5074244;28;20535;-65
2022/09/04 12:08:01;;;;;;;56.27;1.87;;;;;;;;;;5074291;28;20485;-65
2022/09/04 12:10:46;;;;;;;56.47;1.90;;;;;;;;;;5074105;28;20443;-65
2022/09/04 12:13:27;;;;;;;56.47;1.93;;;;;;;;;;5073812;28;21078;-67
2022/09/04 12:16:09;;;;;;;56.60;2.00;;;;;;;;;;5074270;28;20526;-66
2022/09/04 12:18:50;;;;;;;56.60;2.00;;;;;;;;;;5040488;28;20796;-67
2022/09/04 12:21:36;;;;;;;56.87;2.10;;;;;;;;;;5074630;28;20439;-67
2022/09/04 12:24:14;;;;;;;56.63;1.73;;;;;;;;;;5074010;28;20469;-67
2022/09/04 12:26:54;;;;;;;57.20;1.93;;;;;;;;;;5074127;28;20449;-67
2022/09/04 12:29:41;;;;;;;56.70;2.03;;;;;;;;;;5071422;28;20542;-67
2022/09/04 12:32:27;;;;;;;56.37;1.73;;;;;;;;;;5073548;28;20479;-67
2022/09/04 12:35:08;;;;;;;56.17;1.90;;;;;;;;;;5073891;28;20450;-67
2022/09/04 12:37:42;;;;;;;56.07;1.70;;;;;;;;;;5073945;28;20898;-67
2022/09/04 12:40:24;;;;;;;56.17;1.60;;;;;;;;;;5073335;28;20529;-68
2022/09/04 12:42:56;;;;;;;56.27;1.80;;;;;;;;;;5071717;28;20483;-65
2022/09/04 12:45:27;;;;;;;58.40;2.30;;;;;;;;;;5073471;28;20451;-65
2022/09/04 12:48:02;;;;;;;56.57;1.90;;;;;;;;;;5073383;28;20543;-65
2022/09/04 12:50:44;;;;;;;55.87;1.70;;;;;;;;;;5073193;28;20537;-65
2022/09/04 12:53:27;;;;;;;56.20;1.90;;;;;;;;;;5073268;28;20995;-65
2022/09/04 12:55:59;;;;;;;56.07;1.70;;;;;;;;;;5073644;28;20497;-65
2022/09/04 12:58:33;;;;;;;56.03;1.90;;;;;;;;;;5073200;28;20454;-65
2022/09/04 13:01:07;;;;;;;56.27;1.80;;;;;;;;;;5070966;28;20863;-65
2022/09/04 13:03:37;;;;;;;56.17;1.90;;;;;;;;;;5072955;28;20574;-65
2022/09/04 13:06:15;;;;;;;56.20;1.90;;;;;;;;;;5073236;28;20530;-65
2022/09/04 13:08:48;;;;;;;56.13;1.87;;;;;;;;;;5072714;28;20505;-65
2022/09/04 13:11:19;;;;;;;56.13;1.80;;;;;;;;;;5072972;28;20950;-65
2022/09/04 13:13:52;;;;;;;56.20;2.00;;;;;;;;;;5072675;28;20829;-65
2022/09/04 13:16:21;;;;;;;56.17;1.90;;;;;;;;;;5073072;28;20447;-65
2022/09/04 13:18:57;;;;;;;56.07;1.70;;;;;;;;;;5072376;28;20451;-65
2022/09/04 13:21:31;;;;;;;56.33;2.03;;;;;;;;;;5072965;28;20479;-65
2022/09/04 13:24:18;;;;;;;55.97;1.80;;;;;;;;;;5072672;28;20467;-65
2022/09/04 13:26:53;;;;;;;56.03;1.80;;;;;;;;;;5072880;28;20451;-64
2022/09/04 13:29:28;;;;;;;56.50;2.00;;;;;;;;;;5072507;28;20451;-65
2022/09/04 13:32:09;;;;;;;56.77;2.03;;;;;;;;;;5072572;28;20458;-65
2022/09/04 13:34:43;;;;;;;57.17;1.70;;;;;;;;;;5073001;28;20800;-65
2022/09/04 13:37:20;;;;;;;56.10;1.90;;;;;;;;;;5069948;28;20960;-65
2022/09/04 13:39:55;;;;;;;56.27;1.90;;;;;;;;;;5072086;28;20486;-65
2022/09/04 13:42:40;;;;;;;56.37;1.80;;;;;;;;;;5072355;28;20455;-65
2022/09/04 13:45:11;;;;;;;56.73;2.10;;;;;;;;;;5072285;28;20857;-65
2022/09/04 13:47:42;;;;;;;56.27;1.67;;;;;;;;;;5072140;28;20828;-65
2022/09/04 13:50:15;;;;;;;56.40;1.93;;;;;;;;;;5071837;28;20458;-64
2022/09/04 13:52:45;;;;;;;56.67;2.00;;;;;;;;;;5072009;28;20467;-65
2022/09/04 13:55:15;;;;;;;56.70;2.00;;;;;;;;;;5072143;28;20541;-65
2022/09/04 13:57:46;;;;;;;56.20;1.67;;;;;;;;;;5071989;28;20442;-64
2022/09/04 14:00:15;;;;;;;56.57;1.80;;;;;;;;;;5071833;28;20479;-65
2022/09/04 14:02:43;;;;;;;56.43;1.90;;;;;;;;;;5072036;28;20558;-65
2022/09/04 14:05:12;;;;;;;56.57;1.90;;;;;;;;;;5072055;28;20447;-65
2022/09/04 14:07:41;;;;;;;56.60;2.07;;;;;;;;;;5071919;28;20554;-65
2022/09/04 14:10:12;;;;;;;56.77;1.80;;;;;;;;;;5068781;28;21202;-64
2022/09/04 14:12:48;;;;;;;56.63;2.10;;;;;;;;;;5071976;28;20463;-65
2022/09/04 14:15:33;;;;;;;56.70;1.80;;;;;;;;;;5071925;28;20455;-65
2022/09/04 14:18:12;;;;;;;56.50;1.70;;;;;;;;;;5071611;28;20448;-65
2022/09/04 14:20:44;;;;;;;56.47;2.00;;;;;;;;;;5071594;28;20832;-65
2022/09/04 14:23:14;;;;;;;56.07;1.70;;;;;;;;;;5072141;28;20467;-65
2022/09/04 14:25:49;;;;;;;56.47;1.90;;;;;;;;;;5071972;28;20453;-65
2022/09/04 14:28:19;;;;;;;57.20;1.80;;;;;;;;;;5071750;28;20454;-65
2022/09/04 14:30:53;;;;;;;56.30;1.70;;;;;;;;;;5071620;28;20443;-65
2022/09/04 14:33:23;;;;;;;56.57;1.80;;;;;;;;;;5071914;28;20637;-65
2022/09/04 14:35:58;;;;;;;56.27;1.70;;;;;;;;;;5071489;28;20939;-65
2022/09/04 14:38:41;;;;;;;56.40;1.73;;;;;;;;;;5072047;28;20450;-65
2022/09/04 14:41:17;;;;;;;56.47;2.23;;;;;;;;;;5068864;28;20483;-65
2022/09/04 14:43:49;;;;;;;56.70;1.80;;;;;;;;;;5071687;28;20824;-65
2022/09/04 14:46:21;;;;;;;56.47;1.70;;;;;;;;;;5071641;28;20449;-65
2022/09/04 14:48:49;;;;;;;57.00;1.80;;;;;;;;;;5071140;28;20458;-65
2022/09/04 14:51:17;;;;;;;56.90;1.83;;;;;;;;;;5071457;28;20539;-65
2022/09/04 14:53:48;;;;;;;56.57;1.60;;;;;;;;;;5071220;28;20510;-65
2022/09/04 14:56:22;;;;;;;56.27;1.70;;;;;;;;;;5071559;28;20522;-65
2022/09/04 14:58:52;;;;;;;56.77;1.80;;;;;;;;;;5071209;28;20530;-64
2022/09/04 15:01:20;;;;;;;56.63;1.83;;;;;;;;;;5071441;28;20478;-64
2022/09/04 15:03:49;;;;;;;57.10;1.93;;;;;;;;;;5071320;28;20517;-64
2022/09/04 15:06:17;;;;;;;57.23;2.00;;;;;;;;;;5071084;28;20542;-64
2022/09/04 15:08:45;;;;;;;57.07;2.10;;;;;;;;;;5071097;28;20451;-66
2022/09/04 15:11:26;;;;;;;56.80;2.00;;;;;;;;;;5075251;28;20530;-66
2022/09/04 15:13:58;;;;;;;56.67;1.87;;;;;;;;;;5074900;28;20502;-67
2022/09/04 15:16:35;;;;;;;57.20;2.00;;;;;;;;;;5075086;28;20865;-66
2022/09/04 15:19:05;;;;;;;56.90;2.20;;;;;;;;;;5074595;28;20935;-67
2022/09/04 15:21:36;;;;;;;56.97;1.93;;;;;;;;;;5073378;28;20487;-66
2022/09/04 15:24:10;;;;;;;57.00;2.00;;;;;;;;;;5075087;28;20471;-67
2022/09/04 15:26:39;;;;;;;57.03;1.87;;;;;;;;;;5074831;28;20981;-66
2022/09/04 15:29:13;;;;;;;57.13;2.30;;;;;;;;;;5074357;28;20451;-66